sensor_id;sensor_type;location;lat;lon;timestamp;noise_LAeq;noise_LA_min;noise_LA_max;noise_LA01;noise_LA95
43938;Laerm;71382;47.750;10.226;2023-12-22T00:01:54;52.59;49.80;66.70;;
43938;Laerm;71382;47.750;10.226;2023-12-22T00:04:19;63.51;49.70;87.43;;
43938;Laerm;71382;47.750;10.226;2023-12-22T00:06:45;53.91;49.43;73.17;;
43938;Laerm;71382;47.750;10.226;2023-12-22T00:09:13;51.69;49.52;64.96;;
43938;Laerm;71382;47.750;10.226;2023-12-22T00:11:38;56.49;49.58;75.01;;
43938;Laerm;71382;47.750;10.226;2023-12-22T00:14:04;61.41;49.84;80.69;;
43938;Laerm;71382;47.750;10.226;2023-12-22T00:16:29;52.73;49.77;68.08;;
43938;Laerm;71382;47.750;10.226;2023-12-22T00:18:55;58.66;49.85;74.51;;
43938;Laerm;71382;47.750;10.226;2023-12-22T00:21:21;52.43;49.77;69.28;;
43938;Laerm;71382;47.750;10.226;2023-12-22T00:23:46;60.18;49.75;80.93;;
43938;Laerm;71382;47.750;10.226;2023-12-22T00:26:12;55.22;49.61;71.89;;
43938;Laerm;71382;47.750;10.226;2023-12-22T00:28:37;50.74;49.64;60.33;;
43938;Laerm;71382;47.750;10.226;2023-12-22T00:31:03;57.30;49.87;75.49;;
43938;Laerm;71382;47.750;10.226;2023-12-22T00:33:28;57.59;50.02;74.46;;
43938;Laerm;71382;47.750;10.226;2023-12-22T00:35:54;58.48;49.89;79.37;;
43938;Laerm;71382;47.750;10.226;2023-12-22T00:38:19;58.61;50.05;79.84;;
43938;Laerm;71382;47.750;10.226;2023-12-22T00:40:45;59.38;49.88;76.59;;
43938;Laerm;71382;47.750;10.226;2023-12-22T00:43:10;60.60;50.55;81.73;;
43938;Laerm;71382;47.750;10.226;2023-12-22T00:45:36;60.55;50.32;80.49;;
43938;Laerm;71382;47.750;10.226;2023-12-22T00:48:02;56.65;50.23;74.51;;
43938;Laerm;71382;47.750;10.226;2023-12-22T00:50:27;66.84;50.69;86.50;;
43938;Laerm;71382;47.750;10.226;2023-12-22T00:52:53;72.00;50.57;92.81;;
43938;Laerm;71382;47.750;10.226;2023-12-22T00:55:18;62.61;50.37;83.77;;
43938;Laerm;71382;47.750;10.226;2023-12-22T00:57:44;61.14;50.70;81.48;;
43938;Laerm;71382;47.750;10.226;2023-12-22T01:00:09;66.45;50.34;88.32;;
43938;Laerm;71382;47.750;10.226;2023-12-22T01:02:37;58.18;49.87;79.04;;
43938;Laerm;71382;47.750;10.226;2023-12-22T01:05:03;64.36;50.47;85.73;;
43938;Laerm;71382;47.750;10.226;2023-12-22T01:07:29;56.98;50.30;79.91;;
43938;Laerm;71382;47.750;10.226;2023-12-22T01:09:54;63.08;50.54;81.38;;
43938;Laerm;71382;47.750;10.226;2023-12-22T01:12:20;55.47;50.79;69.94;;
43938;Laerm;71382;47.750;10.226;2023-12-22T01:14:45;61.86;50.58;82.64;;
43938;Laerm;71382;47.750;10.226;2023-12-22T01:17:11;57.27;50.27;72.39;;
43938;Laerm;71382;47.750;10.226;2023-12-22T01:19:36;60.31;50.63;80.14;;
43938;Laerm;71382;47.750;10.226;2023-12-22T01:22:02;61.31;50.15;82.29;;
43938;Laerm;71382;47.750;10.226;2023-12-22T01:24:28;55.88;50.29;74.08;;
43938;Laerm;71382;47.750;10.226;2023-12-22T01:26:53;65.11;50.17;83.74;;
43938;Laerm;71382;47.750;10.226;2023-12-22T01:29:19;60.38;50.07;80.68;;
43938;Laerm;71382;47.750;10.226;2023-12-22T01:31:44;55.27;49.99;73.09;;
43938;Laerm;71382;47.750;10.226;2023-12-22T01:34:10;63.29;50.31;82.42;;
43938;Laerm;71382;47.750;10.226;2023-12-22T01:36:35;64.35;50.45;85.27;;
43938;Laerm;71382;47.750;10.226;2023-12-22T01:39:01;65.96;51.05;86.92;;
43938;Laerm;71382;47.750;10.226;2023-12-22T01:41:26;65.84;53.08;87.52;;
43938;Laerm;71382;47.750;10.226;2023-12-22T01:43:52;58.85;52.46;74.73;;
43938;Laerm;71382;47.750;10.226;2023-12-22T01:46:17;56.01;53.12;73.22;;
43938;Laerm;71382;47.750;10.226;2023-12-22T01:48:43;56.51;54.30;70.72;;
43938;Laerm;71382;47.750;10.226;2023-12-22T01:51:09;57.19;54.60;78.63;;
43938;Laerm;71382;47.750;10.226;2023-12-22T01:53:34;56.23;54.40;71.71;;
43938;Laerm;71382;47.750;10.226;2023-12-22T01:56:00;54.59;53.83;56.77;;
43938;Laerm;71382;47.750;10.226;2023-12-22T01:58:27;56.65;53.98;69.20;;
43938;Laerm;71382;47.750;10.226;2023-12-22T02:00:54;54.61;53.95;61.81;;
43938;Laerm;71382;47.750;10.226;2023-12-22T02:03:20;54.67;53.62;65.79;;
43938;Laerm;71382;47.750;10.226;2023-12-22T02:05:46;54.70;53.77;63.24;;
43938;Laerm;71382;47.750;10.226;2023-12-22T02:08:12;54.46;53.74;60.39;;
43938;Laerm;71382;47.750;10.226;2023-12-22T02:10:38;54.44;53.67;60.42;;
43938;Laerm;71382;47.750;10.226;2023-12-22T02:13:04;54.22;53.69;56.86;;
43938;Laerm;71382;47.750;10.226;2023-12-22T02:15:30;54.65;53.52;64.41;;
43938;Laerm;71382;47.750;10.226;2023-12-22T02:18:01;55.40;53.67;72.35;;
43938;Laerm;71382;47.750;10.226;2023-12-22T02:20:28;58.74;53.52;77.81;;
43938;Laerm;71382;47.750;10.226;2023-12-22T02:22:54;54.20;52.33;56.03;;
43938;Laerm;71382;47.750;10.226;2023-12-22T02:25:19;56.84;52.59;77.02;;
43938;Laerm;71382;47.750;10.226;2023-12-22T02:27:49;57.81;54.14;73.03;;
43938;Laerm;71382;47.750;10.226;2023-12-22T02:30:19;62.28;54.04;82.63;;
43938;Laerm;71382;47.750;10.226;2023-12-22T02:32:50;64.12;53.09;83.87;;
43938;Laerm;71382;47.750;10.226;2023-12-22T02:35:19;54.48;53.13;66.79;;
43938;Laerm;71382;47.750;10.226;2023-12-22T02:37:46;54.23;52.74;65.88;;
43938;Laerm;71382;47.750;10.226;2023-12-22T02:40:13;57.22;52.70;75.60;;
43938;Laerm;71382;47.750;10.226;2023-12-22T02:42:39;59.85;52.79;76.67;;
43938;Laerm;71382;47.750;10.226;2023-12-22T02:45:05;58.70;53.05;75.90;;
43938;Laerm;71382;47.750;10.226;2023-12-22T02:47:31;61.66;53.16;79.15;;
43938;Laerm;71382;47.750;10.226;2023-12-22T02:49:58;58.31;53.32;78.29;;
43938;Laerm;71382;47.750;10.226;2023-12-22T02:52:24;62.39;53.21;80.19;;
43938;Laerm;71382;47.750;10.226;2023-12-22T02:54:49;55.33;52.85;69.34;;
43938;Laerm;71382;47.750;10.226;2023-12-22T02:57:15;58.39;53.05;79.46;;
43938;Laerm;71382;47.750;10.226;2023-12-22T02:59:40;64.02;53.19;83.31;;
43938;Laerm;71382;47.750;10.226;2023-12-22T03:02:06;55.85;53.18;70.58;;
43938;Laerm;71382;47.750;10.226;2023-12-22T03:04:31;58.37;53.11;75.18;;
43938;Laerm;71382;47.750;10.226;2023-12-22T03:06:57;58.69;53.18;77.05;;
43938;Laerm;71382;47.750;10.226;2023-12-22T03:09:22;69.67;53.58;84.98;;
43938;Laerm;71382;47.750;10.226;2023-12-22T03:11:48;67.49;53.45;86.41;;
43938;Laerm;71382;47.750;10.226;2023-12-22T03:14:14;61.31;53.58;77.86;;
43938;Laerm;71382;47.750;10.226;2023-12-22T03:16:40;63.04;53.24;81.61;;
43938;Laerm;71382;47.750;10.226;2023-12-22T03:19:09;57.85;53.31;74.80;;
43938;Laerm;71382;47.750;10.226;2023-12-22T03:21:34;60.31;53.23;79.55;;
43938;Laerm;71382;47.750;10.226;2023-12-22T03:24:00;63.63;53.38;85.51;;
43938;Laerm;71382;47.750;10.226;2023-12-22T03:26:28;56.38;53.01;72.86;;
43938;Laerm;71382;47.750;10.226;2023-12-22T03:28:54;58.09;53.17;74.96;;
43938;Laerm;71382;47.750;10.226;2023-12-22T03:31:19;58.23;53.28;74.75;;
43938;Laerm;71382;47.750;10.226;2023-12-22T03:33:45;65.69;53.64;85.65;;
43938;Laerm;71382;47.750;10.226;2023-12-22T03:36:10;56.06;54.12;67.49;;
43938;Laerm;71382;47.750;10.226;2023-12-22T03:38:36;63.54;53.65;81.37;;
43938;Laerm;71382;47.750;10.226;2023-12-22T03:41:01;58.44;53.18;76.57;;
43938;Laerm;71382;47.750;10.226;2023-12-22T03:43:27;57.49;52.83;74.94;;
43938;Laerm;71382;47.750;10.226;2023-12-22T03:45:53;61.44;54.08;78.05;;
43938;Laerm;71382;47.750;10.226;2023-12-22T03:48:19;60.75;55.21;77.13;;
43938;Laerm;71382;47.750;10.226;2023-12-22T03:50:44;57.74;55.22;71.29;;
43938;Laerm;71382;47.750;10.226;2023-12-22T03:53:10;63.78;55.13;82.90;;
43938;Laerm;71382;47.750;10.226;2023-12-22T03:55:38;57.31;55.08;75.43;;
43938;Laerm;71382;47.750;10.226;2023-12-22T03:58:04;56.45;55.11;65.83;;
43938;Laerm;71382;47.750;10.226;2023-12-22T04:00:30;57.71;54.65;74.17;;
43938;Laerm;71382;47.750;10.226;2023-12-22T04:02:56;55.77;54.97;64.02;;
43938;Laerm;71382;47.750;10.226;2023-12-22T04:05:21;55.29;54.58;63.30;;
43938;Laerm;71382;47.750;10.226;2023-12-22T04:07:47;55.88;54.81;64.03;;
43938;Laerm;71382;47.750;10.226;2023-12-22T04:10:12;56.95;54.76;71.94;;
43938;Laerm;71382;47.750;10.226;2023-12-22T04:12:38;56.14;54.72;67.85;;
43938;Laerm;71382;47.750;10.226;2023-12-22T04:15:03;57.74;54.79;78.15;;
43938;Laerm;71382;47.750;10.226;2023-12-22T04:17:29;56.18;54.82;69.49;;
43938;Laerm;71382;47.750;10.226;2023-12-22T04:19:55;59.81;54.45;76.86;;
43938;Laerm;71382;47.750;10.226;2023-12-22T04:22:20;55.72;54.82;62.46;;
43938;Laerm;71382;47.750;10.226;2023-12-22T04:24:46;56.22;54.96;68.03;;
43938;Laerm;71382;47.750;10.226;2023-12-22T04:27:11;55.70;54.65;59.22;;
43938;Laerm;71382;47.750;10.226;2023-12-22T04:29:37;55.61;54.60;62.26;;
43938;Laerm;71382;47.750;10.226;2023-12-22T04:32:02;55.78;54.62;64.72;;
43938;Laerm;71382;47.750;10.226;2023-12-22T04:34:29;56.11;54.83;63.84;;
43938;Laerm;71382;47.750;10.226;2023-12-22T04:36:54;55.82;54.72;68.50;;
43938;Laerm;71382;47.750;10.226;2023-12-22T04:39:20;57.67;54.83;73.84;;
43938;Laerm;71382;47.750;10.226;2023-12-22T04:41:45;56.24;54.91;71.25;;
43938;Laerm;71382;47.750;10.226;2023-12-22T04:44:10;56.68;54.98;73.07;;
43938;Laerm;71382;47.750;10.226;2023-12-22T04:46:36;56.19;54.93;67.52;;
43938;Laerm;71382;47.750;10.226;2023-12-22T04:49:01;58.56;54.84;75.87;;
43938;Laerm;71382;47.750;10.226;2023-12-22T04:51:27;62.02;54.92;80.01;;
43938;Laerm;71382;47.750;10.226;2023-12-22T04:53:52;56.27;54.95;65.24;;
43938;Laerm;71382;47.750;10.226;2023-12-22T04:56:18;58.87;55.04;79.75;;
43938;Laerm;71382;47.750;10.226;2023-12-22T04:58:44;59.70;54.98;74.16;;
43938;Laerm;71382;47.750;10.226;2023-12-22T05:01:09;55.74;55.04;58.79;;
43938;Laerm;71382;47.750;10.226;2023-12-22T05:03:34;57.70;54.91;77.16;;
43938;Laerm;71382;47.750;10.226;2023-12-22T05:06:00;56.67;54.81;67.92;;
43938;Laerm;71382;47.750;10.226;2023-12-22T05:08:26;56.72;55.04;68.51;;
43938;Laerm;71382;47.750;10.226;2023-12-22T05:10:51;56.83;55.06;70.26;;
43938;Laerm;71382;47.750;10.226;2023-12-22T05:13:17;57.13;55.15;74.52;;
43938;Laerm;71382;47.750;10.226;2023-12-22T05:15:42;55.86;55.09;64.97;;
43938;Laerm;71382;47.750;10.226;2023-12-22T05:18:08;62.32;55.22;83.76;;
43938;Laerm;71382;47.750;10.226;2023-12-22T05:20:33;59.47;55.32;79.25;;
43938;Laerm;71382;47.750;10.226;2023-12-22T05:22:59;57.67;55.23;77.19;;
43938;Laerm;71382;47.750;10.226;2023-12-22T05:25:25;56.54;55.03;65.47;;
43938;Laerm;71382;47.750;10.226;2023-12-22T05:27:51;60.14;55.14;78.74;;
43938;Laerm;71382;47.750;10.226;2023-12-22T05:30:17;57.74;55.34;75.38;;
43938;Laerm;71382;47.750;10.226;2023-12-22T05:32:43;56.91;55.27;74.72;;
43938;Laerm;71382;47.750;10.226;2023-12-22T05:35:09;58.47;55.03;73.75;;
43938;Laerm;71382;47.750;10.226;2023-12-22T05:37:35;64.48;55.38;80.53;;
43938;Laerm;71382;47.750;10.226;2023-12-22T05:40:01;65.62;55.38;85.68;;
43938;Laerm;71382;47.750;10.226;2023-12-22T05:42:27;60.57;55.44;74.44;;
43938;Laerm;71382;47.750;10.226;2023-12-22T05:44:52;61.73;55.54;79.51;;
43938;Laerm;71382;47.750;10.226;2023-12-22T05:47:18;66.63;55.67;91.97;;
43938;Laerm;71382;47.750;10.226;2023-12-22T05:49:44;62.08;55.53;80.15;;
43938;Laerm;71382;47.750;10.226;2023-12-22T05:52:09;63.53;55.56;82.88;;
43938;Laerm;71382;47.750;10.226;2023-12-22T05:54:35;58.90;55.50;75.83;;
43938;Laerm;71382;47.750;10.226;2023-12-22T05:57:01;63.74;55.32;83.68;;
43938;Laerm;71382;47.750;10.226;2023-12-22T05:59:30;57.69;55.43;68.36;;
43938;Laerm;71382;47.750;10.226;2023-12-22T06:02:00;60.68;55.52;78.21;;
43938;Laerm;71382;47.750;10.226;2023-12-22T06:04:26;64.85;55.51;84.06;;
43938;Laerm;71382;47.750;10.226;2023-12-22T06:06:51;59.47;55.60;74.64;;
43938;Laerm;71382;47.750;10.226;2023-12-22T06:09:17;57.61;55.59;69.23;;
43938;Laerm;71382;47.750;10.226;2023-12-22T06:11:45;60.28;55.38;78.92;;
43938;Laerm;71382;47.750;10.226;2023-12-22T06:14:11;56.92;55.50;69.01;;
43938;Laerm;71382;47.750;10.226;2023-12-22T06:16:36;58.86;55.37;73.45;;
43938;Laerm;71382;47.750;10.226;2023-12-22T06:19:02;56.55;55.57;62.34;;
43938;Laerm;71382;47.750;10.226;2023-12-22T06:21:28;58.30;55.29;75.61;;
43938;Laerm;71382;47.750;10.226;2023-12-22T06:23:54;59.00;55.57;75.75;;
43938;Laerm;71382;47.750;10.226;2023-12-22T06:26:20;56.91;55.65;67.67;;
43938;Laerm;71382;47.750;10.226;2023-12-22T06:28:45;57.68;55.54;74.72;;
43938;Laerm;71382;47.750;10.226;2023-12-22T06:31:18;58.50;55.40;76.97;;
43938;Laerm;71382;47.750;10.226;2023-12-22T06:33:44;58.14;55.38;72.05;;
43938;Laerm;71382;47.750;10.226;2023-12-22T06:36:19;56.57;55.46;63.99;;
43938;Laerm;71382;47.750;10.226;2023-12-22T06:38:46;57.52;55.58;72.83;;
43938;Laerm;71382;47.750;10.226;2023-12-22T06:41:23;61.41;55.47;80.31;;
43938;Laerm;71382;47.750;10.226;2023-12-22T06:43:49;57.32;55.37;65.68;;
43938;Laerm;71382;47.750;10.226;2023-12-22T06:46:16;56.68;55.35;68.15;;
43938;Laerm;71382;47.750;10.226;2023-12-22T06:48:42;56.70;55.48;69.94;;
43938;Laerm;71382;47.750;10.226;2023-12-22T06:51:16;56.38;55.43;63.23;;
43938;Laerm;71382;47.750;10.226;2023-12-22T06:53:41;62.95;55.53;86.48;;
43938;Laerm;71382;47.750;10.226;2023-12-22T06:56:14;56.51;55.40;64.29;;
43938;Laerm;71382;47.750;10.226;2023-12-22T06:58:39;57.03;55.29;66.47;;
43938;Laerm;71382;47.750;10.226;2023-12-22T07:01:05;61.43;55.46;81.52;;
43938;Laerm;71382;47.750;10.226;2023-12-22T07:03:30;58.57;55.58;77.77;;
43938;Laerm;71382;47.750;10.226;2023-12-22T07:05:56;62.85;55.54;79.93;;
43938;Laerm;71382;47.750;10.226;2023-12-22T07:08:21;57.32;55.35;71.24;;
43938;Laerm;71382;47.750;10.226;2023-12-22T07:10:47;59.33;55.32;75.65;;
43938;Laerm;71382;47.750;10.226;2023-12-22T07:13:12;57.27;55.49;68.46;;
43938;Laerm;71382;47.750;10.226;2023-12-22T07:15:38;63.69;55.39;79.27;;
43938;Laerm;71382;47.750;10.226;2023-12-22T07:18:03;59.47;55.46;72.38;;
43938;Laerm;71382;47.750;10.226;2023-12-22T07:20:30;58.93;55.31;74.15;;
43938;Laerm;71382;47.750;10.226;2023-12-22T07:22:55;66.10;55.48;84.09;;
43938;Laerm;71382;47.750;10.226;2023-12-22T07:25:21;61.91;55.41;82.57;;
43938;Laerm;71382;47.750;10.226;2023-12-22T07:27:47;58.91;55.63;71.74;;
43938;Laerm;71382;47.750;10.226;2023-12-22T07:30:13;62.39;55.52;77.48;;
43938;Laerm;71382;47.750;10.226;2023-12-22T07:32:42;66.31;55.65;89.63;;
43938;Laerm;71382;47.750;10.226;2023-12-22T07:35:09;66.98;55.56;84.89;;
43938;Laerm;71382;47.750;10.226;2023-12-22T07:37:37;67.82;55.55;85.93;;
43938;Laerm;71382;47.750;10.226;2023-12-22T07:40:03;58.19;55.50;71.74;;
43938;Laerm;71382;47.750;10.226;2023-12-22T07:42:29;60.47;55.53;78.69;;
43938;Laerm;71382;47.750;10.226;2023-12-22T07:44:54;58.96;55.53;77.74;;
43938;Laerm;71382;47.750;10.226;2023-12-22T07:47:20;60.27;55.38;73.73;;
43938;Laerm;71382;47.750;10.226;2023-12-22T07:49:45;59.85;55.40;78.83;;
43938;Laerm;71382;47.750;10.226;2023-12-22T07:52:11;57.35;55.34;71.60;;
43938;Laerm;71382;47.750;10.226;2023-12-22T07:54:36;64.28;55.50;85.98;;
43938;Laerm;71382;47.750;10.226;2023-12-22T07:57:02;57.85;55.36;74.13;;
43938;Laerm;71382;47.750;10.226;2023-12-22T07:59:28;59.09;55.42;72.13;;
43938;Laerm;71382;47.750;10.226;2023-12-22T08:01:53;63.93;55.38;83.72;;
43938;Laerm;71382;47.750;10.226;2023-12-22T08:04:19;58.94;55.29;76.06;;
43938;Laerm;71382;47.750;10.226;2023-12-22T08:06:44;70.18;55.61;93.54;;
43938;Laerm;71382;47.750;10.226;2023-12-22T08:09:10;61.19;55.43;78.60;;
43938;Laerm;71382;47.750;10.226;2023-12-22T08:11:35;61.45;55.43;78.70;;
43938;Laerm;71382;47.750;10.226;2023-12-22T08:14:01;60.64;55.52;79.32;;
43938;Laerm;71382;47.750;10.226;2023-12-22T08:16:28;60.91;55.18;76.43;;
43938;Laerm;71382;47.750;10.226;2023-12-22T08:18:54;58.68;55.38;78.30;;
43938;Laerm;71382;47.750;10.226;2023-12-22T08:21:19;59.08;55.42;75.47;;
43938;Laerm;71382;47.750;10.226;2023-12-22T08:23:45;56.90;55.30;67.79;;
43938;Laerm;71382;47.750;10.226;2023-12-22T08:26:10;60.46;55.03;79.06;;
43938;Laerm;71382;47.750;10.226;2023-12-22T08:28:37;59.34;54.93;74.23;;
43938;Laerm;71382;47.750;10.226;2023-12-22T08:31:03;61.03;54.71;80.82;;
43938;Laerm;71382;47.750;10.226;2023-12-22T08:33:29;60.31;54.94;77.63;;
43938;Laerm;71382;47.750;10.226;2023-12-22T08:35:54;59.89;55.01;75.07;;
43938;Laerm;71382;47.750;10.226;2023-12-22T08:38:20;56.78;54.82;65.17;;
43938;Laerm;71382;47.750;10.226;2023-12-22T08:40:45;56.92;55.00;68.93;;
43938;Laerm;71382;47.750;10.226;2023-12-22T08:43:11;60.77;54.68;81.70;;
43938;Laerm;71382;47.750;10.226;2023-12-22T08:45:36;57.55;54.90;75.07;;
43938;Laerm;71382;47.750;10.226;2023-12-22T08:48:02;57.84;55.09;75.58;;
43938;Laerm;71382;47.750;10.226;2023-12-22T08:50:27;61.60;54.92;77.84;;
43938;Laerm;71382;47.750;10.226;2023-12-22T08:52:53;60.14;55.22;77.92;;
43938;Laerm;71382;47.750;10.226;2023-12-22T08:55:18;57.39;55.09;69.13;;
43938;Laerm;71382;47.750;10.226;2023-12-22T08:57:44;63.53;55.25;82.62;;
43938;Laerm;71382;47.750;10.226;2023-12-22T09:00:09;58.44;55.07;75.70;;
43938;Laerm;71382;47.750;10.226;2023-12-22T09:02:35;62.02;55.16;80.17;;
43938;Laerm;71382;47.750;10.226;2023-12-22T09:05:01;58.20;55.00;72.43;;
43938;Laerm;71382;47.750;10.226;2023-12-22T09:07:27;61.01;55.07;78.55;;
43938;Laerm;71382;47.750;10.226;2023-12-22T09:09:52;59.35;54.99;73.44;;
43938;Laerm;71382;47.750;10.226;2023-12-22T09:12:18;60.54;54.96;80.53;;
43938;Laerm;71382;47.750;10.226;2023-12-22T09:14:43;62.16;55.12;79.99;;
43938;Laerm;71382;47.750;10.226;2023-12-22T09:17:09;65.57;55.07;86.95;;
43938;Laerm;71382;47.750;10.226;2023-12-22T09:19:35;61.74;55.18;78.98;;
43938;Laerm;71382;47.750;10.226;2023-12-22T09:22:04;67.37;55.19;86.82;;
43938;Laerm;71382;47.750;10.226;2023-12-22T09:24:29;59.02;55.07;74.93;;
43938;Laerm;71382;47.750;10.226;2023-12-22T09:26:55;58.94;55.21;73.35;;
43938;Laerm;71382;47.750;10.226;2023-12-22T09:29:20;68.05;55.22;88.49;;
43938;Laerm;71382;47.750;10.226;2023-12-22T09:31:47;63.65;55.14;84.16;;
43938;Laerm;71382;47.750;10.226;2023-12-22T09:34:12;58.13;55.03;76.58;;
43938;Laerm;71382;47.750;10.226;2023-12-22T09:36:38;68.37;54.94;88.25;;
43938;Laerm;71382;47.750;10.226;2023-12-22T09:39:03;63.08;54.34;81.78;;
43938;Laerm;71382;47.750;10.226;2023-12-22T09:41:29;65.89;55.13;83.03;;
43938;Laerm;71382;47.750;10.226;2023-12-22T09:43:54;62.99;55.27;81.64;;
43938;Laerm;71382;47.750;10.226;2023-12-22T09:46:21;63.79;55.30;82.14;;
43938;Laerm;71382;47.750;10.226;2023-12-22T09:48:47;62.00;55.44;79.24;;
43938;Laerm;71382;47.750;10.226;2023-12-22T09:51:14;64.39;55.36;82.56;;
43938;Laerm;71382;47.750;10.226;2023-12-22T09:53:42;62.11;54.63;80.17;;
43938;Laerm;71382;47.750;10.226;2023-12-22T09:56:10;61.59;54.65;82.28;;
43938;Laerm;71382;47.750;10.226;2023-12-22T09:58:36;62.57;54.84;80.87;;
43938;Laerm;71382;47.750;10.226;2023-12-22T10:01:04;60.83;55.25;76.03;;
43938;Laerm;71382;47.750;10.226;2023-12-22T10:03:30;58.94;55.28;74.52;;
43938;Laerm;71382;47.750;10.226;2023-12-22T10:05:58;64.01;55.28;84.70;;
43938;Laerm;71382;47.750;10.226;2023-12-22T10:08:24;70.88;55.36;89.98;;
43938;Laerm;71382;47.750;10.226;2023-12-22T10:10:50;62.23;55.47;78.99;;
43938;Laerm;71382;47.750;10.226;2023-12-22T10:13:18;60.86;55.46;75.51;;
43938;Laerm;71382;47.750;10.226;2023-12-22T10:15:43;62.46;55.06;84.60;;
43938;Laerm;71382;47.750;10.226;2023-12-22T10:18:10;65.77;55.18;83.72;;
43938;Laerm;71382;47.750;10.226;2023-12-22T10:20:36;56.70;54.94;68.31;;
43938;Laerm;71382;47.750;10.226;2023-12-22T10:23:02;57.55;55.20;72.66;;
43938;Laerm;71382;47.750;10.226;2023-12-22T10:25:28;62.77;55.32;82.10;;
43938;Laerm;71382;47.750;10.226;2023-12-22T10:27:54;64.42;55.33;82.35;;
43938;Laerm;71382;47.750;10.226;2023-12-22T10:30:20;61.62;55.37;76.30;;
43938;Laerm;71382;47.750;10.226;2023-12-22T10:32:46;59.99;55.55;77.20;;
43938;Laerm;71382;47.750;10.226;2023-12-22T10:35:12;65.85;55.47;84.64;;
43938;Laerm;71382;47.750;10.226;2023-12-22T10:37:37;58.93;55.44;75.00;;
43938;Laerm;71382;47.750;10.226;2023-12-22T10:40:03;62.06;55.38;82.34;;
43938;Laerm;71382;47.750;10.226;2023-12-22T10:42:29;63.10;55.65;81.84;;
43938;Laerm;71382;47.750;10.226;2023-12-22T10:44:55;63.54;55.64;80.25;;
43938;Laerm;71382;47.750;10.226;2023-12-22T10:47:20;65.83;55.40;91.15;;
43938;Laerm;71382;47.750;10.226;2023-12-22T10:49:48;60.46;55.43;79.67;;
43938;Laerm;71382;47.750;10.226;2023-12-22T10:52:16;58.32;52.71;75.18;;
43938;Laerm;71382;47.750;10.226;2023-12-22T10:54:43;65.52;53.14;81.32;;
43938;Laerm;71382;47.750;10.226;2023-12-22T10:57:09;59.71;55.44;75.32;;
43938;Laerm;71382;47.750;10.226;2023-12-22T10:59:35;62.39;55.72;81.84;;
43938;Laerm;71382;47.750;10.226;2023-12-22T11:02:04;62.83;55.67;80.01;;
43938;Laerm;71382;47.750;10.226;2023-12-22T11:04:31;64.44;55.65;80.37;;
43938;Laerm;71382;47.750;10.226;2023-12-22T11:07:01;58.77;55.48;72.74;;
43938;Laerm;71382;47.750;10.226;2023-12-22T11:09:28;69.87;55.59;87.75;;
43938;Laerm;71382;47.750;10.226;2023-12-22T11:11:56;63.22;55.73;77.25;;
43938;Laerm;71382;47.750;10.226;2023-12-22T11:14:22;66.02;55.83;87.28;;
43938;Laerm;71382;47.750;10.226;2023-12-22T11:16:49;60.05;55.53;79.36;;
43938;Laerm;71382;47.750;10.226;2023-12-22T11:19:15;64.88;55.72;79.73;;
43938;Laerm;71382;47.750;10.226;2023-12-22T11:21:41;67.34;55.93;86.04;;
43938;Laerm;71382;47.750;10.226;2023-12-22T11:24:08;65.37;55.64;82.41;;
43938;Laerm;71382;47.750;10.226;2023-12-22T11:26:33;64.99;55.70;80.98;;
43938;Laerm;71382;47.750;10.226;2023-12-22T11:29:00;64.45;55.70;80.60;;
43938;Laerm;71382;47.750;10.226;2023-12-22T11:31:28;60.09;55.64;76.07;;
43938;Laerm;71382;47.750;10.226;2023-12-22T11:33:56;65.45;55.68;84.47;;
43938;Laerm;71382;47.750;10.226;2023-12-22T11:36:24;60.35;55.62;79.39;;
43938;Laerm;71382;47.750;10.226;2023-12-22T11:38:50;66.21;55.77;82.71;;
43938;Laerm;71382;47.750;10.226;2023-12-22T11:41:17;63.04;55.73;81.25;;
43938;Laerm;71382;47.750;10.226;2023-12-22T11:43:44;60.96;55.74;75.85;;
43938;Laerm;71382;47.750;10.226;2023-12-22T11:46:10;59.10;55.41;70.32;;
43938;Laerm;71382;47.750;10.226;2023-12-22T11:48:36;60.72;55.61;81.41;;
43938;Laerm;71382;47.750;10.226;2023-12-22T11:51:11;65.09;55.78;82.86;;
43938;Laerm;71382;47.750;10.226;2023-12-22T11:53:37;63.81;55.60;83.35;;
43938;Laerm;71382;47.750;10.226;2023-12-22T11:56:06;61.19;55.48;77.79;;
43938;Laerm;71382;47.750;10.226;2023-12-22T11:58:35;62.89;55.79;81.78;;
43938;Laerm;71382;47.750;10.226;2023-12-22T12:01:01;63.50;56.02;80.88;;
43938;Laerm;71382;47.750;10.226;2023-12-22T12:03:29;65.22;55.77;83.59;;
43938;Laerm;71382;47.750;10.226;2023-12-22T12:08:36;61.96;55.71;80.77;;
43938;Laerm;71382;47.750;10.226;2023-12-22T12:11:01;66.16;55.59;86.52;;
43938;Laerm;71382;47.750;10.226;2023-12-22T12:13:28;60.63;55.88;79.73;;
43938;Laerm;71382;47.750;10.226;2023-12-22T12:15:56;63.43;55.82;81.25;;
43938;Laerm;71382;47.750;10.226;2023-12-22T12:18:24;60.41;55.90;78.75;;
43938;Laerm;71382;47.750;10.226;2023-12-22T12:20:52;62.31;55.89;78.21;;
43938;Laerm;71382;47.750;10.226;2023-12-22T12:23:18;63.75;55.95;85.71;;
43938;Laerm;71382;47.750;10.226;2023-12-22T12:25:44;61.66;55.86;74.65;;
43938;Laerm;71382;47.750;10.226;2023-12-22T12:28:10;59.22;55.98;72.94;;
43938;Laerm;71382;47.750;10.226;2023-12-22T12:30:36;65.41;56.06;83.87;;
43938;Laerm;71382;47.750;10.226;2023-12-22T12:33:06;62.20;55.92;82.55;;
43938;Laerm;71382;47.750;10.226;2023-12-22T12:35:32;60.92;56.05;78.23;;
43938;Laerm;71382;47.750;10.226;2023-12-22T12:37:58;66.34;55.89;84.07;;
43938;Laerm;71382;47.750;10.226;2023-12-22T12:40:24;59.84;55.82;75.60;;
43938;Laerm;71382;47.750;10.226;2023-12-22T12:42:50;62.59;56.07;76.24;;
43938;Laerm;71382;47.750;10.226;2023-12-22T12:45:21;63.77;55.97;84.57;;
43938;Laerm;71382;47.750;10.226;2023-12-22T12:48:00;67.92;55.88;84.74;;
43938;Laerm;71382;47.750;10.226;2023-12-22T12:50:26;65.45;55.84;80.80;;
43938;Laerm;71382;47.750;10.226;2023-12-22T12:52:55;65.49;55.83;80.97;;
43938;Laerm;71382;47.750;10.226;2023-12-22T12:55:21;61.51;55.84;81.35;;
43938;Laerm;71382;47.750;10.226;2023-12-22T12:57:50;62.38;55.80;77.18;;
43938;Laerm;71382;47.750;10.226;2023-12-22T13:00:17;62.94;55.81;83.68;;
43938;Laerm;71382;47.750;10.226;2023-12-22T13:02:49;62.50;55.87;80.94;;
43938;Laerm;71382;47.750;10.226;2023-12-22T13:05:20;66.10;55.89;82.82;;
43938;Laerm;71382;47.750;10.226;2023-12-22T13:07:45;66.97;55.76;86.16;;
43938;Laerm;71382;47.750;10.226;2023-12-22T13:10:23;67.26;56.01;83.98;;
43938;Laerm;71382;47.750;10.226;2023-12-22T13:12:52;63.44;55.72;83.55;;
43938;Laerm;71382;47.750;10.226;2023-12-22T13:15:20;68.93;55.85;86.88;;
43938;Laerm;71382;47.750;10.226;2023-12-22T13:17:46;66.30;55.96;85.25;;
43938;Laerm;71382;47.750;10.226;2023-12-22T13:20:12;66.67;55.99;85.86;;
43938;Laerm;71382;47.750;10.226;2023-12-22T13:22:38;61.53;55.81;76.25;;
43938;Laerm;71382;47.750;10.226;2023-12-22T13:25:03;62.35;55.62;80.74;;
43938;Laerm;71382;47.750;10.226;2023-12-22T13:27:29;63.38;55.81;78.93;;
43938;Laerm;71382;47.750;10.226;2023-12-22T13:29:55;63.61;55.89;82.43;;